createdAt,value
2018-08-24T00:00:55.576Z,5.30
2018-08-24T00:02:59.718Z,5.60
2018-08-24T00:05:08.932Z,5.03
2018-08-24T00:07:14.817Z,5.30
2018-08-24T00:09:27.417Z,4.83
2018-08-24T00:11:37.555Z,5.27
2018-08-24T00:13:44.575Z,4.80
2018-08-24T00:15:52.195Z,4.93
2018-08-24T00:18:01.832Z,5.33
2018-08-24T00:20:10.222Z,6.03
2018-08-24T00:22:15.297Z,5.73
2018-08-24T00:24:24.435Z,5.80
2018-08-24T00:26:35.512Z,5.87
2018-08-24T00:28:41.704Z,5.50
2018-08-24T00:30:46.397Z,6.17
2018-08-24T00:32:53.701Z,7.07
2018-08-24T00:35:00.533Z,6.77
2018-08-24T00:37:05.883Z,6.47
2018-08-24T00:39:11.814Z,6.70
2018-08-24T00:41:16.035Z,6.97
2018-08-24T00:43:22.383Z,7.00
2018-08-24T00:45:27.056Z,7.03
2018-08-24T00:47:37.211Z,8.97
2018-08-24T00:49:44.308Z,8.77
2018-08-24T00:51:49.689Z,8.10
2018-08-24T00:53:54.503Z,7.50
2018-08-24T00:55:59.305Z,7.50
2018-08-24T00:58:06.595Z,8.00
2018-08-24T01:00:22.456Z,7.87
2018-08-24T01:02:36.041Z,7.70
2018-08-24T01:04:42.586Z,7.90
2018-08-24T01:06:47.278Z,8.97
2018-08-24T01:08:53.541Z,8.53
2018-08-24T01:10:59.385Z,9.10
2018-08-24T01:13:05.964Z,9.20
2018-08-24T01:15:13.386Z,9.13
2018-08-24T01:17:24.295Z,10.07
2018-08-24T01:19:32.132Z,9.73
2018-08-24T01:21:40.715Z,9.90
2018-08-24T01:23:48.482Z,8.97
2018-08-24T01:25:53.172Z,9.40
2018-08-24T01:28:00.540Z,9.57
2018-08-24T01:30:06.691Z,9.77
2018-08-24T01:32:16.003Z,9.20
2018-08-24T01:34:24.779Z,9.77
2018-08-24T01:36:29.159Z,9.27
2018-08-24T01:38:35.749Z,8.80
2018-08-24T01:40:41.350Z,9.20
2018-08-24T01:42:48.808Z,8.70
2018-08-24T01:44:58.662Z,8.23
2018-08-24T01:47:06.668Z,8.10
2018-08-24T01:49:12.816Z,8.47
2018-08-24T01:51:18.679Z,8.53
2018-08-24T01:53:26.008Z,9.40
2018-08-24T01:55:32.140Z,9.30
2018-08-24T01:57:36.453Z,9.80
2018-08-24T01:59:44.332Z,9.60
2018-08-24T02:01:53.969Z,9.70
2018-08-24T02:04:00.157Z,9.87
2018-08-24T02:06:08.329Z,10.50
2018-08-24T02:08:18.690Z,10.80
2018-08-24T02:10:30.917Z,11.27
2018-08-24T02:12:43.226Z,11.20
2018-08-24T02:14:50.108Z,11.03
2018-08-24T02:16:59.049Z,10.97
2018-08-24T02:19:13.121Z,10.60
2018-08-24T02:21:23.402Z,10.07
2018-08-24T02:23:31.499Z,10.00
2018-08-24T02:25:44.151Z,9.83
2018-08-24T02:27:49.578Z,9.90
2018-08-24T02:29:58.777Z,9.70
2018-08-24T02:32:07.338Z,9.33
2018-08-24T02:34:12.080Z,9.10
2018-08-24T02:36:17.008Z,9.23
2018-08-24T02:38:22.842Z,9.43
2018-08-24T02:40:32.065Z,9.73
2018-08-24T02:42:38.198Z,8.93
2018-08-24T02:44:46.520Z,9.33
2018-08-24T02:46:54.733Z,10.20
2018-08-24T02:49:01.756Z,9.43
2018-08-24T02:51:07.513Z,10.30
2018-08-24T02:53:14.504Z,9.53
2018-08-24T02:55:24.777Z,10.67
2018-08-24T02:57:33.017Z,10.30
2018-08-24T02:59:40.383Z,10.50
2018-08-24T03:01:46.713Z,9.87
2018-08-24T03:03:53.954Z,10.10
2018-08-24T03:06:04.366Z,10.90
2018-08-24T03:08:12.379Z,10.80
2018-08-24T03:10:20.847Z,9.83
2018-08-24T03:12:29.888Z,9.53
2018-08-24T03:14:37.142Z,10.40
2018-08-24T03:16:45.433Z,10.53
2018-08-24T03:18:53.420Z,9.67
2018-08-24T03:21:00.563Z,10.03
2018-08-24T03:23:10.113Z,9.87
2018-08-24T03:25:17.405Z,9.47
2018-08-24T03:27:25.009Z,10.00
2018-08-24T03:29:35.371Z,10.67
2018-08-24T03:31:44.320Z,10.20
2018-08-24T03:33:54.283Z,9.50
2018-08-24T03:36:02.616Z,10.60
2018-08-24T03:38:11.665Z,9.70
2018-08-24T03:40:19.959Z,9.37
2018-08-24T03:42:27.412Z,10.63
2018-08-24T03:44:34.346Z,11.03
2018-08-24T03:46:44.354Z,11.30
2018-08-24T03:48:54.827Z,11.20
2018-08-24T03:51:05.106Z,12.17
2018-08-24T03:53:13.991Z,10.97
2018-08-24T03:55:27.377Z,10.70
2018-08-24T03:57:34.271Z,10.93
2018-08-24T03:59:40.544Z,11.63
2018-08-24T04:01:46.750Z,12.17
2018-08-24T04:03:53.541Z,10.73
2018-08-24T04:06:04.541Z,10.90
2018-08-24T04:08:13.669Z,11.37
2018-08-24T04:10:21.304Z,10.43
2018-08-24T04:12:29.353Z,10.93
2018-08-24T04:14:40.209Z,11.27
2018-08-24T04:16:52.423Z,11.13
2018-08-24T04:19:00.624Z,10.50
2018-08-24T04:21:11.547Z,10.63
2018-08-24T04:23:19.599Z,10.40
2018-08-24T04:25:31.808Z,11.27
2018-08-24T04:27:39.614Z,11.13
2018-08-24T04:29:47.175Z,10.40
2018-08-24T04:31:58.623Z,10.87
2018-08-24T04:34:11.141Z,10.70
2018-08-24T04:36:21.054Z,10.70
2018-08-24T04:38:27.771Z,11.37
2018-08-24T04:40:34.908Z,12.47
2018-08-24T04:42:41.234Z,12.33
2018-08-24T04:44:47.471Z,12.33
2018-08-24T04:47:00.256Z,10.97
2018-08-24T04:49:08.065Z,12.20
2018-08-24T04:51:16.981Z,12.60
2018-08-24T04:53:38.181Z,12.33
2018-08-24T04:55:55.106Z,11.73
2018-08-24T04:58:07.579Z,10.93
2018-08-24T05:00:26.562Z,8.37
2018-08-24T05:02:33.327Z,10.13
2018-08-24T05:04:40.286Z,9.27
2018-08-24T05:06:48.041Z,8.77
2018-08-24T05:09:00.772Z,7.57
2018-08-24T05:11:08.031Z,6.40
2018-08-24T05:13:16.614Z,6.73
2018-08-24T05:15:46.629Z,6.73
2018-08-24T05:17:54.837Z,6.90
2018-08-24T05:20:06.667Z,7.13
2018-08-24T05:22:15.131Z,6.47
2018-08-24T05:24:29.274Z,6.00
2018-08-24T05:26:36.685Z,7.63
2018-08-24T05:28:44.589Z,8.07
2018-08-24T05:30:54.060Z,5.90
2018-08-24T05:33:00.807Z,7.03
2018-08-24T05:35:07.190Z,6.83
2018-08-24T05:37:19.719Z,7.03
2018-08-24T05:39:27.312Z,6.37
2018-08-24T05:41:35.101Z,7.07
2018-08-24T05:43:43.543Z,6.30
2018-08-24T05:45:51.461Z,5.53
2018-08-24T05:47:58.407Z,4.90
2018-08-24T05:50:04.739Z,4.77
2018-08-24T05:52:12.054Z,5.50
2018-08-24T05:54:19.463Z,4.80
2018-08-24T05:56:25.590Z,5.53
2018-08-24T05:58:34.322Z,5.00
2018-08-24T06:00:42.633Z,4.97
2018-08-24T06:02:50.386Z,3.20
2018-08-24T06:04:57.546Z,2.83
2018-08-24T06:07:04.379Z,2.67
2018-08-24T06:09:15.925Z,2.30
2018-08-24T06:11:22.239Z,1.80
2018-08-24T06:13:29.469Z,1.80
2018-08-24T06:15:36.172Z,1.33
2018-08-24T06:17:47.712Z,1.50
2018-08-24T06:19:54.133Z,1.77
2018-08-24T06:22:01.575Z,1.30
2018-08-24T06:24:09.341Z,1.30
2018-08-24T06:26:15.424Z,1.30
2018-08-24T06:28:21.812Z,1.43
2018-08-24T06:30:29.173Z,1.80
2018-08-24T06:32:35.703Z,1.40
2018-08-24T06:34:42.777Z,1.30
2018-08-24T06:36:49.495Z,1.30
2018-08-24T06:38:58.479Z,1.57
2018-08-24T06:41:05.549Z,1.63
2018-08-24T06:43:12.401Z,1.50
2018-08-24T06:45:19.232Z,1.93
2018-08-24T06:47:26.537Z,1.27
2018-08-24T06:49:33.190Z,1.30
2018-08-24T06:51:39.552Z,1.30
2018-08-24T06:53:47.600Z,1.60
2018-08-24T06:55:54.120Z,1.40
2018-08-24T06:58:02.649Z,1.40
2018-08-24T07:00:13.580Z,1.33
2018-08-24T07:02:20.480Z,1.17
2018-08-24T07:04:33.457Z,1.00
2018-08-24T07:06:44.655Z,1.20
2018-08-24T07:08:53.079Z,1.10
2018-08-24T07:10:59.321Z,1.50
2018-08-24T07:13:05.201Z,1.40
2018-08-24T07:15:16.858Z,1.43
2018-08-24T07:17:27.796Z,1.60
2018-08-24T07:19:32.621Z,1.60
2018-08-24T07:21:39.188Z,1.50
2018-08-24T07:23:45.073Z,1.40
2018-08-24T07:25:51.123Z,1.50
2018-08-24T07:27:57.010Z,1.73
2018-08-24T07:30:05.611Z,1.70
2018-08-24T07:32:14.200Z,1.50
2018-08-24T07:34:20.619Z,1.83
2018-08-24T07:36:28.199Z,1.40
2018-08-24T07:38:34.520Z,1.43
2018-08-24T07:40:39.160Z,1.73
2018-08-24T07:42:44.327Z,1.40
2018-08-24T07:44:55.730Z,1.47
2018-08-24T07:47:01.162Z,1.60
2018-08-24T07:49:05.805Z,1.80
2018-08-24T07:51:09.989Z,1.80
2018-08-24T07:53:16.015Z,1.83
2018-08-24T07:55:20.038Z,1.63
2018-08-24T07:57:24.799Z,1.83
2018-08-24T07:59:29.999Z,1.80
2018-08-24T08:01:37.013Z,1.90
2018-08-24T08:03:43.007Z,1.43
2018-08-24T08:05:50.776Z,2.30
2018-08-24T08:07:57.050Z,2.10
2018-08-24T08:10:07.156Z,2.03
2018-08-24T08:12:13.644Z,2.07
2018-08-24T08:14:23.396Z,2.27
2018-08-24T08:16:33.356Z,2.20
2018-08-24T08:18:40.110Z,2.73
2018-08-24T08:20:46.436Z,2.03
2018-08-24T08:22:55.415Z,2.20
2018-08-24T08:25:00.423Z,2.63
2018-08-24T08:27:04.747Z,2.50
2018-08-24T08:29:14.294Z,3.10
2018-08-24T08:31:19.739Z,2.50
2018-08-24T08:33:24.046Z,2.80
2018-08-24T08:35:28.462Z,2.73
2018-08-24T08:37:32.384Z,2.80
2018-08-24T08:39:36.322Z,3.17
2018-08-24T08:41:40.713Z,3.27
2018-08-24T08:43:44.876Z,2.80
2018-08-24T08:45:49.334Z,3.33
2018-08-24T08:47:55.148Z,3.60
2018-08-24T08:49:59.153Z,3.67
2018-08-24T08:52:04.345Z,3.87
2018-08-24T08:54:09.170Z,4.17
2018-08-24T08:56:13.251Z,4.03
2018-08-24T08:58:17.260Z,3.70
2018-08-24T09:00:25.144Z,3.40
2018-08-24T09:02:29.777Z,4.40
2018-08-24T09:04:34.700Z,4.43
2018-08-24T09:06:38.726Z,4.77
2018-08-24T09:08:42.701Z,5.37
2018-08-24T09:10:48.227Z,5.87
2018-08-24T09:12:52.509Z,5.97
2018-08-24T09:14:56.560Z,5.60
2018-08-24T09:17:05.495Z,6.00
2018-08-24T09:19:14.854Z,6.73
2018-08-24T09:21:23.929Z,5.67
2018-08-24T09:23:33.097Z,6.03
2018-08-24T09:25:42.320Z,6.33
2018-08-24T09:27:52.446Z,7.30
2018-08-24T09:30:01.050Z,7.17
2018-08-24T09:32:04.941Z,6.40
2018-08-24T09:34:08.923Z,6.57
2018-08-24T09:36:21.620Z,7.23
2018-08-24T09:38:26.410Z,7.03
2018-08-24T09:40:39.241Z,6.67
2018-08-24T09:42:43.320Z,6.93
2018-08-24T09:44:48.786Z,6.07
2018-08-24T09:46:57.846Z,6.63
2018-08-24T09:49:07.262Z,7.90
2018-08-24T09:51:17.298Z,7.00
2018-08-24T09:53:27.142Z,6.93
2018-08-24T09:55:36.284Z,6.80
2018-08-24T09:57:40.530Z,6.70
2018-08-24T09:59:46.312Z,7.13
2018-08-24T10:02:00.590Z,6.87
2018-08-24T10:04:11.209Z,7.20
2018-08-24T10:06:20.423Z,5.77
2018-08-24T10:08:34.765Z,6.83
2018-08-24T10:10:39.159Z,6.60
2018-08-24T10:12:43.939Z,6.93
2018-08-24T10:14:48.878Z,6.70
2018-08-24T10:16:52.902Z,6.17
2018-08-24T10:18:58.216Z,6.80
2018-08-24T10:21:03.224Z,7.13
2018-08-24T10:23:07.597Z,6.60
2018-08-24T10:25:11.894Z,7.27
2018-08-24T10:27:15.759Z,6.53
2018-08-24T10:29:20.119Z,6.87
2018-08-24T10:31:24.022Z,7.00
2018-08-24T10:33:28.537Z,7.53
2018-08-24T10:35:34.626Z,6.93
2018-08-24T10:37:39.464Z,7.10
2018-08-24T10:39:43.506Z,7.57
2018-08-24T10:41:49.347Z,7.07
2018-08-24T10:43:53.237Z,7.03
2018-08-24T10:45:59.445Z,7.30
2018-08-24T10:48:05.118Z,7.10
2018-08-24T10:50:10.238Z,6.90
2018-08-24T10:52:16.201Z,7.40
2018-08-24T10:54:22.200Z,7.13
2018-08-24T10:56:26.615Z,7.37
2018-08-24T10:58:30.512Z,6.77
2018-08-24T11:00:34.712Z,7.10
2018-08-24T11:02:39.137Z,7.53
2018-08-24T11:04:43.691Z,7.30
2018-08-24T11:06:50.900Z,6.93
2018-08-24T11:08:57.329Z,7.50
2018-08-24T11:11:01.579Z,7.77
2018-08-24T11:13:09.647Z,7.13
2018-08-24T11:15:16.257Z,6.90
2018-08-24T11:17:21.235Z,6.90
2018-08-24T11:19:28.581Z,6.70
2018-08-24T11:21:32.427Z,7.53
2018-08-24T11:23:36.301Z,6.43
2018-08-24T11:25:40.616Z,6.77
2018-08-24T11:27:44.939Z,7.53
2018-08-24T11:29:49.576Z,6.90
2018-08-24T11:31:56.697Z,7.47
2018-08-24T11:34:07.209Z,7.60
2018-08-24T11:36:11.099Z,7.47
2018-08-24T11:38:15.552Z,7.03
2018-08-24T11:40:19.743Z,7.07
2018-08-24T11:42:23.682Z,7.10
2018-08-24T11:44:29.230Z,7.30
2018-08-24T11:46:35.404Z,7.07
2018-08-24T11:48:42.204Z,6.73
2018-08-24T11:50:46.432Z,6.70
2018-08-24T11:52:50.422Z,5.97
2018-08-24T11:54:55.518Z,6.97
2018-08-24T11:57:01.358Z,6.37
2018-08-24T11:59:06.302Z,5.80
2018-08-24T12:01:11.452Z,6.30
2018-08-24T12:03:15.463Z,7.10
2018-08-24T12:05:20.246Z,7.23
2018-08-24T12:07:25.400Z,6.70
2018-08-24T12:09:29.833Z,7.10
2018-08-24T12:11:33.710Z,6.90
2018-08-24T12:13:37.561Z,7.13
2018-08-24T12:15:42.829Z,7.30
2018-08-24T12:17:46.907Z,6.80
2018-08-24T12:19:53.227Z,6.30
2018-08-24T12:21:57.380Z,6.73
2018-08-24T12:24:01.996Z,6.00
2018-08-24T12:26:06.331Z,7.07
2018-08-24T12:28:15.334Z,6.63
2018-08-24T12:30:21.541Z,6.23
2018-08-24T12:32:25.454Z,6.20
2018-08-24T12:34:31.610Z,6.07
2018-08-24T12:36:36.319Z,6.10
2018-08-24T12:38:40.177Z,6.50
2018-08-24T12:40:46.340Z,6.07
2018-08-24T12:42:50.283Z,6.47
2018-08-24T12:44:55.707Z,6.53
2018-08-24T12:47:01.853Z,5.93
2018-08-24T12:49:10.378Z,6.03
2018-08-24T12:51:16.479Z,6.33
2018-08-24T12:53:23.865Z,6.13
2018-08-24T12:55:28.444Z,5.37
2018-08-24T12:57:48.033Z,6.13
2018-08-24T12:59:54.020Z,6.60
2018-08-24T13:01:58.420Z,6.13
2018-08-24T13:04:08.432Z,5.27
2018-08-24T13:08:25.794Z,6.23
2018-08-24T13:10:30.310Z,5.57
2018-08-24T13:12:37.955Z,5.70
2018-08-24T13:14:41.961Z,5.97
2018-08-24T13:16:47.704Z,6.63
2018-08-24T13:18:51.622Z,5.87
2018-08-24T13:20:57.501Z,6.00
2018-08-24T13:23:01.499Z,5.47
2018-08-24T13:25:06.905Z,5.30
2018-08-24T13:27:10.829Z,5.23
2018-08-24T13:29:15.663Z,5.50
2018-08-24T13:31:20.495Z,4.97
2018-08-24T13:33:25.353Z,4.60
2018-08-24T13:35:31.387Z,5.50
2018-08-24T13:37:37.512Z,4.80
2018-08-24T13:39:42.327Z,5.30
2018-08-24T13:41:51.513Z,5.47
2018-08-24T13:44:01.211Z,5.13
2018-08-24T13:46:07.484Z,5.10
2018-08-24T13:48:12.358Z,5.13
2018-08-24T13:50:18.483Z,5.00
2018-08-24T13:52:23.190Z,5.30
2018-08-24T13:54:29.442Z,5.03
2018-08-24T13:56:36.534Z,4.87
2018-08-24T13:58:41.870Z,5.05
2018-08-24T14:00:45.720Z,4.70
2018-08-24T14:02:53.907Z,5.07
2018-08-24T14:04:58.366Z,5.37
2018-08-24T14:07:08.110Z,5.12
2018-08-24T14:09:13.882Z,5.50
2018-08-24T14:11:17.747Z,5.33
2018-08-24T14:13:22.358Z,4.70
2018-08-24T14:15:26.735Z,4.95
2018-08-24T14:17:31.234Z,4.87
2018-08-24T14:19:35.391Z,4.42
2018-08-24T14:21:40.399Z,5.03
2018-08-24T14:23:46.086Z,4.80
2018-08-24T14:25:52.923Z,4.53
2018-08-24T14:27:57.119Z,4.90
2018-08-24T14:30:01.744Z,4.60
2018-08-24T14:32:06.910Z,4.30
2018-08-24T14:34:12.006Z,4.47
2018-08-24T14:36:16.140Z,3.70
2018-08-24T14:38:20.047Z,4.10
2018-08-24T14:40:24.453Z,3.67
2018-08-24T14:42:28.384Z,4.08
2018-08-24T14:44:33.995Z,3.60
2018-08-24T14:46:38.677Z,3.98
2018-08-24T14:48:44.495Z,3.95
2018-08-24T14:50:50.682Z,4.12
2018-08-24T14:52:55.781Z,3.62
2018-08-24T14:55:01.100Z,3.80
2018-08-24T14:57:06.568Z,3.83
2018-08-24T14:59:15.670Z,3.90
2018-08-24T15:01:22.233Z,3.62
2018-08-24T15:03:26.403Z,3.92
2018-08-24T15:05:32.685Z,3.15
2018-08-24T15:07:37.235Z,3.60
2018-08-24T15:09:42.374Z,3.47
2018-08-24T15:11:46.474Z,3.70
2018-08-24T15:13:52.037Z,3.87
2018-08-24T15:15:56.264Z,3.40
2018-08-24T15:18:04.360Z,3.63
2018-08-24T15:20:09.345Z,3.70
2018-08-24T15:22:13.260Z,3.17
2018-08-24T15:24:17.154Z,3.83
2018-08-24T15:26:21.419Z,3.40
2018-08-24T15:28:25.510Z,3.37
2018-08-24T15:30:33.387Z,3.83
2018-08-24T15:32:37.329Z,4.10
2018-08-24T15:34:45.334Z,3.90
2018-08-24T15:36:51.156Z,3.87
2018-08-24T15:38:56.696Z,3.75
2018-08-24T15:41:00.577Z,4.25
2018-08-24T15:43:06.861Z,3.87
2018-08-24T15:45:13.552Z,4.00
2018-08-24T15:47:17.432Z,4.05
2018-08-24T15:49:22.220Z,3.33
2018-08-24T15:51:26.567Z,4.20
2018-08-24T15:53:30.424Z,4.25
2018-08-24T15:55:35.486Z,4.15
2018-08-24T15:57:39.721Z,4.03
2018-08-24T15:59:43.730Z,4.23
2018-08-24T16:01:48.121Z,4.20
2018-08-24T16:03:52.000Z,3.80
2018-08-24T16:05:59.718Z,4.53
2018-08-24T16:08:04.955Z,4.57
2018-08-24T16:10:10.289Z,4.37
2018-08-24T16:12:16.393Z,4.10
2018-08-24T16:14:20.238Z,4.40
2018-08-24T16:16:24.673Z,3.70
2018-08-24T16:18:28.472Z,4.23
2018-08-24T16:20:32.974Z,3.70
2018-08-24T16:22:37.854Z,4.17
2018-08-24T16:24:41.714Z,3.50
2018-08-24T16:26:46.585Z,3.57
2018-08-24T16:28:50.415Z,3.90
2018-08-24T16:30:54.255Z,3.70
2018-08-24T16:33:01.292Z,3.20
2018-08-24T16:35:05.159Z,3.73
2018-08-24T16:37:10.706Z,3.77
2018-08-24T16:39:14.553Z,3.50
2018-08-24T16:41:20.277Z,3.13
2018-08-24T16:43:27.183Z,3.80
2018-08-24T16:45:32.106Z,3.50
2018-08-24T16:47:37.539Z,3.47
2018-08-24T16:51:50.678Z,3.97
2018-08-24T16:53:54.569Z,3.80
2018-08-24T16:55:58.480Z,3.87
2018-08-24T16:58:02.816Z,3.40
2018-08-24T17:00:07.667Z,3.70
2018-08-24T17:02:12.621Z,3.70
2018-08-24T17:04:21.964Z,3.60
2018-08-24T17:06:27.255Z,3.37
2018-08-24T17:08:32.540Z,4.10
2018-08-24T17:10:38.395Z,3.70
2018-08-24T17:12:43.304Z,3.57
2018-08-24T17:14:47.190Z,3.40
2018-08-24T17:16:51.393Z,3.90
2018-08-24T17:18:58.081Z,3.90
2018-08-24T17:21:01.967Z,3.30
2018-08-24T17:23:09.532Z,3.40
2018-08-24T17:25:14.510Z,3.63
2018-08-24T17:27:18.319Z,3.33
2018-08-24T17:29:25.247Z,3.70
2018-08-24T17:31:30.072Z,3.23
2018-08-24T17:33:34.547Z,3.63
2018-08-24T17:35:40.818Z,3.30
2018-08-24T17:37:47.618Z,3.33
2018-08-24T17:39:51.469Z,3.13
2018-08-24T17:41:58.525Z,3.30
2018-08-24T17:44:02.466Z,3.60
2018-08-24T17:46:06.686Z,3.70
2018-08-24T17:48:11.584Z,3.37
2018-08-24T17:50:16.217Z,3.60
2018-08-24T17:52:20.079Z,3.43
2018-08-24T17:54:26.855Z,3.37
2018-08-24T17:56:30.797Z,3.70
2018-08-24T17:58:35.483Z,3.37
2018-08-24T18:00:40.361Z,3.40
2018-08-24T18:02:45.027Z,2.97
2018-08-24T18:04:50.411Z,3.27
2018-08-24T18:06:55.335Z,3.00
2018-08-24T18:08:59.242Z,2.87
2018-08-24T18:11:03.397Z,3.17
2018-08-24T18:13:08.262Z,2.83
2018-08-24T18:17:30.099Z,2.90
2018-08-24T18:19:35.078Z,2.90
2018-08-24T18:21:40.024Z,2.77
2018-08-24T18:23:44.501Z,2.97
2018-08-24T18:25:48.695Z,2.93
2018-08-24T18:27:52.669Z,2.70
2018-08-24T18:29:56.608Z,2.77
2018-08-24T18:32:01.198Z,2.70
2018-08-24T18:34:06.761Z,3.00
2018-08-24T18:36:12.463Z,2.97
2018-08-24T18:38:18.591Z,2.77
2018-08-24T18:40:25.752Z,2.63
2018-08-24T18:42:31.876Z,2.90
2018-08-24T18:44:38.194Z,2.60
2018-08-24T18:46:42.024Z,2.93
2018-08-24T18:48:47.454Z,2.87
2018-08-24T18:50:53.503Z,2.77
2018-08-24T18:52:57.399Z,2.40
2018-08-24T18:55:01.288Z,2.67
2018-08-24T18:57:09.387Z,2.17
2018-08-24T18:59:13.337Z,2.40
2018-08-24T19:01:18.092Z,2.60
2018-08-24T19:03:25.187Z,1.97
2018-08-24T19:05:31.515Z,2.83
2018-08-24T19:07:35.413Z,2.57
2018-08-24T19:09:42.706Z,2.40
2018-08-24T19:11:52.567Z,2.23
2018-08-24T19:13:57.546Z,2.37
2018-08-24T19:16:01.775Z,2.07
2018-08-24T19:18:11.863Z,2.40
2018-08-24T19:20:22.795Z,2.30
2018-08-24T19:22:29.416Z,2.77
2018-08-24T19:24:35.238Z,2.30
2018-08-24T19:26:40.069Z,2.53
2018-08-24T19:28:49.752Z,2.70
2018-08-24T19:30:53.789Z,2.87
2018-08-24T19:32:57.642Z,2.20
2018-08-24T19:35:02.267Z,3.03
2018-08-24T19:37:10.145Z,2.37
2018-08-24T19:39:15.313Z,2.50
2018-08-24T19:41:26.433Z,2.20
2018-08-24T19:43:31.271Z,2.50
2018-08-24T19:45:37.731Z,2.80
2018-08-24T19:47:49.030Z,2.40
2018-08-24T19:49:52.950Z,2.70
2018-08-24T19:51:56.849Z,2.20
2018-08-24T19:54:01.077Z,2.70
2018-08-24T19:56:06.765Z,2.93
2018-08-24T19:58:16.597Z,2.40
2018-08-24T20:00:24.597Z,2.43
2018-08-24T20:02:30.337Z,2.27
2018-08-24T20:04:34.954Z,2.50
2018-08-24T20:06:44.073Z,2.60
2018-08-24T20:08:57.653Z,2.80
2018-08-24T20:11:02.250Z,2.23
2018-08-24T20:13:06.793Z,2.23
2018-08-24T20:15:15.805Z,2.73
2018-08-24T20:17:26.993Z,2.30
2018-08-24T20:19:31.954Z,2.50
2018-08-24T20:21:38.083Z,2.20
2018-08-24T20:23:44.344Z,2.47
2018-08-24T20:25:49.610Z,2.43
2018-08-24T20:27:54.532Z,2.30
2018-08-24T20:29:58.437Z,2.40
2018-08-24T20:32:03.658Z,2.03
2018-08-24T20:34:07.589Z,2.13
2018-08-24T20:36:12.289Z,2.57
2018-08-24T20:38:17.227Z,2.27
2018-08-24T20:40:21.648Z,2.50
2018-08-24T20:42:26.522Z,2.27
2018-08-24T20:44:33.212Z,2.40
2018-08-24T20:46:48.286Z,2.17
2018-08-24T20:48:53.759Z,2.30
2018-08-24T20:51:01.659Z,2.30
2018-08-24T20:53:06.443Z,2.30
2018-08-24T20:55:10.347Z,2.20
2018-08-24T20:57:14.188Z,1.83
2018-08-24T20:59:19.684Z,2.40
2018-08-24T21:01:24.625Z,2.33
2018-08-24T21:03:29.585Z,2.23
2018-08-24T21:05:33.452Z,2.27
2018-08-24T21:07:38.295Z,2.20
2018-08-24T21:09:42.492Z,2.03
2018-08-24T21:11:47.324Z,2.03
2018-08-24T21:13:51.549Z,2.13
2018-08-24T21:15:56.632Z,1.97
2018-08-24T21:18:01.536Z,2.77
2018-08-24T21:20:05.409Z,1.83
2018-08-24T21:22:09.286Z,2.10
2018-08-24T21:24:14.158Z,2.20
2018-08-24T21:26:18.249Z,2.10
2018-08-24T21:28:24.625Z,2.30
2018-08-24T21:30:29.158Z,2.20
2018-08-24T21:32:33.134Z,2.03
2018-08-24T21:34:38.457Z,1.90
2018-08-24T21:36:42.468Z,2.33
2018-08-24T21:38:46.317Z,2.00
2018-08-24T21:40:51.437Z,1.87
2018-08-24T21:42:56.467Z,1.57
2018-08-24T21:45:00.469Z,2.37
2018-08-24T21:47:05.160Z,2.23
2018-08-24T21:49:09.302Z,2.00
2018-08-24T21:51:13.155Z,2.40
2018-08-24T21:53:18.332Z,2.30
2018-08-24T21:55:22.113Z,2.50
2018-08-24T21:57:27.515Z,2.20
2018-08-24T21:59:32.267Z,2.13
2018-08-24T22:01:36.456Z,2.30
2018-08-24T22:03:40.833Z,2.13
2018-08-24T22:05:44.669Z,2.10
2018-08-24T22:07:49.245Z,2.63
2018-08-24T22:09:53.406Z,2.13
2018-08-24T22:11:59.748Z,2.43
2018-08-24T22:14:04.280Z,2.60
2018-08-24T22:16:09.315Z,2.20
2018-08-24T22:18:13.247Z,2.23
2018-08-24T22:20:17.103Z,2.03
2018-08-24T22:22:22.770Z,2.13
2018-08-24T22:24:27.641Z,2.57
2018-08-24T22:26:33.567Z,2.10
2018-08-24T22:28:37.682Z,2.20
2018-08-24T22:30:41.719Z,2.00
2018-08-24T22:32:45.740Z,2.60
2018-08-24T22:34:50.001Z,2.30
2018-08-24T22:36:56.500Z,2.20
2018-08-24T22:39:00.358Z,2.00
2018-08-24T22:41:04.572Z,2.30
2018-08-24T22:43:15.226Z,2.30
2018-08-24T22:45:22.647Z,2.67
2018-08-24T22:47:28.563Z,2.63
2018-08-24T22:49:33.252Z,2.40
2018-08-24T22:51:40.559Z,2.50
2018-08-24T22:53:45.633Z,2.70
2018-08-24T22:55:49.997Z,1.90
2018-08-24T22:57:53.811Z,2.33
2018-08-24T23:00:00.433Z,2.07
2018-08-24T23:02:04.893Z,1.80
2018-08-24T23:04:08.705Z,2.17
2018-08-24T23:06:13.982Z,1.93
2018-08-24T23:08:17.833Z,2.07
2018-08-24T23:10:21.751Z,2.30
2018-08-24T23:12:25.621Z,2.10
2018-08-24T23:14:31.130Z,2.20
2018-08-24T23:16:35.707Z,2.50
2018-08-24T23:18:40.022Z,2.60
2018-08-24T23:20:44.759Z,2.30
2018-08-24T23:22:49.076Z,2.20
2018-08-24T23:24:53.268Z,2.10
2018-08-24T23:26:57.080Z,2.30
2018-08-24T23:29:02.252Z,2.10
2018-08-24T23:31:06.666Z,1.93
2018-08-24T23:33:11.422Z,2.43
2018-08-24T23:35:15.226Z,1.73
2018-08-24T23:37:19.043Z,2.00
2018-08-24T23:39:24.144Z,1.80
2018-08-24T23:41:28.414Z,1.93
2018-08-24T23:43:32.774Z,1.97
2018-08-24T23:45:36.840Z,1.67
2018-08-24T23:47:41.883Z,2.03
2018-08-24T23:49:46.232Z,2.20
2018-08-24T23:51:50.310Z,2.10
2018-08-24T23:53:54.402Z,1.77
2018-08-24T23:55:59.680Z,2.00
2018-08-24T23:58:03.589Z,1.70
